QTR9028 BGBW-PAJN
Flight info
| Callsign | QTR9028 |
|---|---|
| Flight time | N/A |
| Altitude | 34000 |
| Route | OVEDA DCT AGUMI/N0467F340 DCT 67N064W 68N078W 68N092W 67N106W DCT 65N17 DCT 62N127W DCT DEEJA DCT ZEKIM |
| Aircraft | B77L/H-SDE1E2E3FGHIJ2J3J4J5M1RWXY/LB1D1 |
Departure
| Time | 2026-04-11 12:40 |
|---|---|
| Airport | Narsarsuaq Airport (BGBW) |
Arrival
| Time | N/A |
|---|---|
| Airport | Juneau International Airport (PAJN) |
| Time | Latitude | Longitude | Altitude | Speed | Heading |
|---|---|---|---|---|---|
| 2026-04-11 12:22 | 61.16317 | -45.41560 | 66 ft | 0 kts | 127° |
| 2026-04-11 12:33 | 61.16320 | -45.41559 | 75 ft | 4 kts | 97° |
| 2026-04-11 12:34 | 61.16322 | -45.41544 | 60 ft | 4 kts | 53° |
| 2026-04-11 12:34 | 61.16304 | -45.41583 | 62 ft | 4 kts | 38° |
| 2026-04-11 12:34 | 61.16299 | -45.41590 | 68 ft | 1 kts | 38° |
| 2026-04-11 12:36 | 61.16316 | -45.41591 | 62 ft | 4 kts | 340° |
| 2026-04-11 12:36 | 61.16320 | -45.41643 | 64 ft | 4 kts | 248° |
| 2026-04-11 12:37 | 61.16308 | -45.41701 | 68 ft | 4 kts | 253° |
| 2026-04-11 12:37 | 61.16317 | -45.41765 | 66 ft | 5 kts | 294° |
| 2026-04-11 12:37 | 61.16333 | -45.41827 | 67 ft | 5 kts | 303° |
| 2026-04-11 12:37 | 61.16357 | -45.41880 | 68 ft | 5 kts | 314° |
| 2026-04-11 12:38 | 61.16383 | -45.41931 | 90 ft | 5 kts | 320° |
| 2026-04-11 12:38 | 61.16417 | -45.41951 | 91 ft | 6 kts | 2° |
| 2026-04-11 12:38 | 61.16455 | -45.41913 | 94 ft | 7 kts | 32° |
| 2026-04-11 12:38 | 61.16506 | -45.41826 | 94 ft | 15 kts | 40° |
| 2026-04-11 12:39 | 61.16586 | -45.41674 | 97 ft | 16 kts | 47° |
| 2026-04-11 12:39 | 61.16642 | -45.41532 | 100 ft | 2 kts | 32° |
| 2026-04-11 12:39 | 61.16655 | -45.41545 | 100 ft | 5 kts | 319° |
| 2026-04-11 12:39 | 61.16650 | -45.41571 | 100 ft | 0 kts | 212° |
| 2026-04-11 12:40 | 61.16476 | -45.41851 | 95 ft | 82 kts | 221° |
| 2026-04-11 12:40 | 61.15776 | -45.43077 | 117 ft | 173 kts | 219° |
| 2026-04-11 12:40 | 61.14811 | -45.44701 | 1167 ft | 180 kts | 218° |
| 2026-04-11 12:41 | 61.14036 | -45.46558 | 2536 ft | 172 kts | 251° |
| 2026-04-11 12:41 | 61.13926 | -45.49023 | 3161 ft | 171 kts | 280° |
| 2026-04-11 12:41 | 61.14379 | -45.51449 | 3543 ft | 195 kts | 310° |
| 2026-04-11 12:41 | 61.15521 | -45.53168 | 3812 ft | 216 kts | 339° |
| 2026-04-11 12:42 | 61.17081 | -45.53597 | 4164 ft | 238 kts | 11° |
| 2026-04-11 12:42 | 61.18636 | -45.52349 | 4901 ft | 242 kts | 29° |
| 2026-04-11 12:42 | 61.19958 | -45.50221 | 5679 ft | 243 kts | 54° |
| 2026-04-11 12:43 | 61.20403 | -45.43627 | 7365 ft | 241 kts | 115° |
| 2026-04-11 12:43 | 61.19399 | -45.40898 | 8134 ft | 243 kts | 144° |
| 2026-04-11 12:43 | 61.17814 | -45.39420 | 8645 ft | 258 kts | 172° |
| 2026-04-11 12:43 | 61.16010 | -45.39735 | 9410 ft | 266 kts | 199° |
| 2026-04-11 12:44 | 61.14413 | -45.41736 | 10134 ft | 273 kts | 219° |
| 2026-04-11 12:44 | 61.13033 | -45.44585 | 10524 ft | 292 kts | 233° |
| 2026-04-11 12:44 | 61.12275 | -45.48648 | 10729 ft | 321 kts | 263° |
| 2026-04-11 12:44 | 61.12579 | -45.53398 | 10937 ft | 351 kts | 291° |
| 2026-04-11 12:45 | 61.13936 | -45.57702 | 11504 ft | 365 kts | 314° |
| 2026-04-11 12:45 | 61.15914 | -45.61055 | 12209 ft | 372 kts | 328° |
| 2026-04-11 12:45 | 61.18262 | -45.63391 | 13033 ft | 378 kts | 339° |
| 2026-04-11 12:45 | 61.20755 | -45.65222 | 13932 ft | 383 kts | 341° |
| 2026-04-11 12:46 | 61.23288 | -45.67022 | 14741 ft | 387 kts | 340° |
| 2026-04-11 12:46 | 61.25828 | -45.68943 | 15543 ft | 391 kts | 339° |
| 2026-04-11 12:46 | 61.28384 | -45.71011 | 16326 ft | 396 kts | 338° |
| 2026-04-11 12:46 | 61.30950 | -45.73157 | 17094 ft | 400 kts | 338° |
| 2026-04-11 12:47 | 61.33529 | -45.75411 | 17865 ft | 405 kts | 334° |
| 2026-04-11 12:47 | 61.36016 | -45.78213 | 18577 ft | 409 kts | 327° |
| 2026-04-11 12:47 | 61.38353 | -45.81635 | 19240 ft | 412 kts | 322° |
| 2026-04-11 12:47 | 61.40656 | -45.85240 | 19852 ft | 418 kts | 322° |
| 2026-04-11 12:48 | 61.42993 | -45.88919 | 20464 ft | 422 kts | 322° |
| 2026-04-11 12:48 | 61.45346 | -45.92628 | 21154 ft | 426 kts | 322° |
| 2026-04-11 12:48 | 61.47722 | -45.96369 | 21805 ft | 430 kts | 322° |
| 2026-04-11 12:48 | 61.50123 | -46.00143 | 22453 ft | 434 kts | 322° |
| 2026-04-11 12:49 | 61.52546 | -46.03950 | 23070 ft | 438 kts | 322° |
| 2026-04-11 12:49 | 61.54996 | -46.07800 | 23674 ft | 442 kts | 322° |
| 2026-04-11 12:49 | 61.57469 | -46.11689 | 24185 ft | 446 kts | 322° |
| 2026-04-11 12:49 | 61.59959 | -46.15611 | 24709 ft | 449 kts | 322° |
| 2026-04-11 12:50 | 61.62465 | -46.19565 | 25216 ft | 452 kts | 322° |
| 2026-04-11 12:50 | 61.64990 | -46.23558 | 25717 ft | 457 kts | 322° |
| 2026-04-11 12:50 | 61.67544 | -46.27607 | 26125 ft | 462 kts | 322° |
| 2026-04-11 12:50 | 61.70122 | -46.31701 | 26596 ft | 466 kts | 322° |
| 2026-04-11 12:51 | 61.72721 | -46.35838 | 27091 ft | 469 kts | 322° |
| 2026-04-11 12:51 | 61.75330 | -46.40000 | 27582 ft | 472 kts | 322° |
| 2026-04-11 12:51 | 61.77960 | -46.44206 | 28035 ft | 476 kts | 322° |
| 2026-04-11 12:51 | 61.80610 | -46.48451 | 28481 ft | 480 kts | 322° |
| 2026-04-11 12:52 | 61.83281 | -46.52740 | 28908 ft | 483 kts | 321° |
| 2026-04-11 12:52 | 61.85966 | -46.57062 | 29307 ft | 487 kts | 321° |
| 2026-04-11 12:52 | 61.88666 | -46.61418 | 29763 ft | 489 kts | 321° |
| 2026-04-11 12:52 | 61.91369 | -46.65788 | 30291 ft | 488 kts | 321° |
| 2026-04-11 12:53 | 61.94066 | -46.70156 | 30798 ft | 486 kts | 321° |
| 2026-04-11 12:53 | 61.96746 | -46.74508 | 31333 ft | 484 kts | 321° |
| 2026-04-11 12:53 | 61.99407 | -46.78839 | 31921 ft | 480 kts | 320° |
| 2026-04-11 12:53 | 62.02051 | -46.83150 | 32441 ft | 478 kts | 320° |
| 2026-04-11 12:54 | 62.04684 | -46.87450 | 32964 ft | 476 kts | 320° |
| 2026-04-11 12:54 | 62.07299 | -46.91737 | 33488 ft | 473 kts | 320° |
| 2026-04-11 12:54 | 62.09898 | -46.96007 | 33958 ft | 471 kts | 320° |
| 2026-04-11 12:54 | 62.12510 | -47.00313 | 33963 ft | 478 kts | 320° |
| 2026-04-11 12:55 | 62.17752 | -47.08980 | 33981 ft | 473 kts | 320° |
| 2026-04-11 12:55 | 62.22932 | -47.17572 | 33979 ft | 470 kts | 320° |
| 2026-04-11 12:56 | 62.28099 | -47.26181 | 33992 ft | 470 kts | 320° |
| 2026-04-11 12:56 | 62.33260 | -47.34820 | 33989 ft | 470 kts | 320° |
| 2026-04-11 12:57 | 62.38420 | -47.43499 | 34001 ft | 471 kts | 320° |
| 2026-04-11 12:57 | 62.43622 | -47.52285 | 34004 ft | 472 kts | 320° |
| 2026-04-11 12:58 | 62.48758 | -47.61001 | 34012 ft | 473 kts | 320° |
| 2026-04-11 12:58 | 62.53938 | -47.69830 | 34010 ft | 474 kts | 320° |
| 2026-04-11 12:59 | 62.59152 | -47.78759 | 34019 ft | 475 kts | 320° |
| 2026-04-11 12:59 | 62.64332 | -47.87670 | 34012 ft | 475 kts | 320° |
| 2026-04-11 13:00 | 62.69510 | -47.96617 | 34017 ft | 475 kts | 320° |
| 2026-04-11 13:00 | 62.74684 | -48.05589 | 34021 ft | 476 kts | 319° |
| 2026-04-11 13:01 | 62.82445 | -48.19149 | 34009 ft | 476 kts | 319° |
| 2026-04-11 13:02 | 62.87609 | -48.28221 | 34006 ft | 476 kts | 319° |
| 2026-04-11 13:02 | 62.92768 | -48.37328 | 34009 ft | 476 kts | 319° |
| 2026-04-11 13:03 | 62.97922 | -48.46467 | 34020 ft | 476 kts | 319° |
| 2026-04-11 13:03 | 63.03063 | -48.55619 | 34016 ft | 476 kts | 319° |
| 2026-04-11 13:04 | 63.08202 | -48.64814 | 34005 ft | 475 kts | 319° |
| 2026-04-11 13:04 | 63.13327 | -48.74032 | 34007 ft | 475 kts | 319° |
| 2026-04-11 13:05 | 63.18450 | -48.83281 | 34021 ft | 476 kts | 319° |
| 2026-04-11 13:05 | 63.23571 | -48.92573 | 34017 ft | 476 kts | 319° |
| 2026-04-11 13:06 | 63.28690 | -49.01910 | 34026 ft | 476 kts | 319° |
| 2026-04-11 13:06 | 63.33800 | -49.11271 | 34023 ft | 476 kts | 319° |
| 2026-04-11 13:07 | 63.38907 | -49.20672 | 34029 ft | 476 kts | 318° |
| 2026-04-11 13:07 | 63.44003 | -49.30099 | 34029 ft | 476 kts | 319° |
| 2026-04-11 13:08 | 63.49100 | -49.39571 | 34046 ft | 477 kts | 318° |
| 2026-04-11 13:08 | 63.54194 | -49.49084 | 34036 ft | 477 kts | 318° |
| 2026-04-11 13:09 | 63.59290 | -49.58647 | 34045 ft | 477 kts | 318° |
| 2026-04-11 13:09 | 63.64378 | -49.68242 | 34066 ft | 477 kts | 318° |
| 2026-04-11 13:10 | 63.69465 | -49.77880 | 34053 ft | 478 kts | 318° |
| 2026-04-11 13:10 | 63.74550 | -49.87562 | 34056 ft | 478 kts | 318° |
| 2026-04-11 13:11 | 63.78774 | -49.95641 | 34059 ft | 479 kts | 318° |
| 2026-04-11 13:11 | 63.83856 | -50.05402 | 34048 ft | 479 kts | 318° |
| 2026-04-11 13:12 | 63.88933 | -50.15204 | 34046 ft | 479 kts | 317° |
| 2026-04-11 13:12 | 63.94039 | -50.25110 | 34048 ft | 479 kts | 317° |
| 2026-04-11 13:13 | 63.99073 | -50.34925 | 34042 ft | 480 kts | 317° |
| 2026-04-11 13:13 | 64.04134 | -50.44842 | 34045 ft | 480 kts | 317° |
| 2026-04-11 13:14 | 64.09192 | -50.54802 | 34039 ft | 480 kts | 317° |
| 2026-04-11 13:14 | 64.14242 | -50.64795 | 34038 ft | 480 kts | 317° |
| 2026-04-11 13:15 | 64.19288 | -50.74831 | 34045 ft | 481 kts | 317° |
| 2026-04-11 13:15 | 64.24367 | -50.84985 | 34040 ft | 481 kts | 317° |
| 2026-04-11 13:16 | 64.29414 | -50.95124 | 34041 ft | 482 kts | 317° |
| 2026-04-11 13:16 | 64.34459 | -51.05311 | 34031 ft | 482 kts | 317° |
| 2026-04-11 13:17 | 64.39498 | -51.15537 | 34034 ft | 482 kts | 317° |
| 2026-04-11 13:17 | 64.44532 | -51.25805 | 34037 ft | 482 kts | 317° |
| 2026-04-11 13:18 | 64.49558 | -51.36112 | 34027 ft | 483 kts | 317° |
| 2026-04-11 13:18 | 64.54579 | -51.46457 | 34040 ft | 482 kts | 316° |
| 2026-04-11 13:19 | 64.59592 | -51.56842 | 34037 ft | 483 kts | 316° |
| 2026-04-11 13:19 | 64.64601 | -51.67271 | 34040 ft | 483 kts | 316° |
| 2026-04-11 13:20 | 64.69603 | -51.77739 | 34046 ft | 484 kts | 316° |
| 2026-04-11 13:20 | 64.74611 | -51.88276 | 34040 ft | 484 kts | 316° |
| 2026-04-11 13:21 | 64.79610 | -51.98848 | 34037 ft | 485 kts | 316° |
| 2026-04-11 13:21 | 64.84608 | -52.09473 | 34039 ft | 485 kts | 316° |
| 2026-04-11 13:22 | 64.89605 | -52.20150 | 34044 ft | 485 kts | 316° |
| 2026-04-11 13:22 | 64.94591 | -52.30863 | 34048 ft | 486 kts | 316° |
| 2026-04-11 13:23 | 64.99578 | -52.41629 | 34038 ft | 486 kts | 316° |
| 2026-04-11 13:23 | 65.04357 | -52.52888 | 34034 ft | 484 kts | 307° |
| 2026-04-11 13:24 | 65.08146 | -52.65973 | 34038 ft | 480 kts | 296° |
| 2026-04-11 13:24 | 65.11229 | -52.80026 | 34040 ft | 480 kts | 295° |
| 2026-04-11 13:25 | 65.14267 | -52.94152 | 34048 ft | 481 kts | 295° |
| 2026-04-11 13:25 | 65.17325 | -53.08315 | 34045 ft | 482 kts | 295° |
| 2026-04-11 13:26 | 65.20393 | -53.22506 | 34040 ft | 482 kts | 295° |
| 2026-04-11 13:26 | 65.23455 | -53.36728 | 34041 ft | 482 kts | 295° |
| 2026-04-11 13:27 | 65.26505 | -53.50991 | 34046 ft | 483 kts | 295° |
| 2026-04-11 13:27 | 65.29541 | -53.65291 | 34047 ft | 483 kts | 294° |
| 2026-04-11 13:28 | 65.32563 | -53.79628 | 34052 ft | 482 kts | 294° |
| 2026-04-11 13:28 | 65.35569 | -53.93987 | 34051 ft | 482 kts | 294° |
| 2026-04-11 13:29 | 65.38560 | -54.08368 | 34052 ft | 482 kts | 294° |
| 2026-04-11 13:29 | 65.41537 | -54.22782 | 34051 ft | 482 kts | 294° |
| 2026-04-11 13:30 | 65.44501 | -54.37234 | 34064 ft | 482 kts | 294° |
| 2026-04-11 13:30 | 65.47452 | -54.51723 | 34061 ft | 483 kts | 294° |
| 2026-04-11 13:31 | 65.50393 | -54.66262 | 34064 ft | 483 kts | 293° |
| 2026-04-11 13:31 | 65.53325 | -54.80857 | 34056 ft | 483 kts | 293° |
| 2026-04-11 13:32 | 65.56240 | -54.95472 | 34058 ft | 484 kts | 293° |
| 2026-04-11 13:32 | 65.59146 | -55.10143 | 34081 ft | 484 kts | 293° |
| 2026-04-11 13:33 | 65.62038 | -55.24854 | 34076 ft | 484 kts | 292° |
| 2026-04-11 13:33 | 65.64917 | -55.39601 | 34075 ft | 485 kts | 292° |
| 2026-04-11 13:34 | 65.67785 | -55.54395 | 34058 ft | 485 kts | 292° |
| 2026-04-11 13:34 | 65.70641 | -55.69234 | 34056 ft | 485 kts | 292° |
| 2026-04-11 13:35 | 65.73481 | -55.84100 | 34081 ft | 485 kts | 292° |
| 2026-04-11 13:35 | 65.76310 | -55.99017 | 34069 ft | 486 kts | 292° |
| 2026-04-11 13:36 | 65.79125 | -56.13967 | 34085 ft | 486 kts | 291° |
| 2026-04-11 13:36 | 65.81926 | -56.28957 | 34072 ft | 486 kts | 291° |
| 2026-04-11 13:37 | 65.84711 | -56.43971 | 34067 ft | 485 kts | 291° |
| 2026-04-11 13:37 | 65.87477 | -56.58989 | 34095 ft | 485 kts | 291° |
| 2026-04-11 13:38 | 65.90232 | -56.74067 | 34068 ft | 485 kts | 291° |
| 2026-04-11 13:38 | 65.92971 | -56.89168 | 34064 ft | 485 kts | 291° |
| 2026-04-11 13:39 | 65.95694 | -57.04299 | 34069 ft | 485 kts | 290° |
| 2026-04-11 13:39 | 65.98405 | -57.19473 | 34068 ft | 485 kts | 290° |
| 2026-04-11 13:40 | 66.01098 | -57.34662 | 34068 ft | 485 kts | 290° |
| 2026-04-11 13:40 | 66.03780 | -57.49904 | 34075 ft | 486 kts | 290° |
| 2026-04-11 13:41 | 66.06451 | -57.65212 | 34072 ft | 487 kts | 290° |
| 2026-04-11 13:41 | 66.09111 | -57.80566 | 34066 ft | 487 kts | 289° |
| 2026-04-11 13:42 | 66.11756 | -57.95957 | 34068 ft | 487 kts | 289° |
| 2026-04-11 13:42 | 66.14385 | -58.11378 | 34068 ft | 487 kts | 289° |
| 2026-04-11 13:43 | 66.17002 | -58.26844 | 34074 ft | 488 kts | 289° |
| 2026-04-11 13:43 | 66.19605 | -58.42359 | 34071 ft | 488 kts | 289° |
| 2026-04-11 13:44 | 66.22192 | -58.57901 | 34071 ft | 488 kts | 289° |
| 2026-04-11 13:44 | 66.24764 | -58.73478 | 34074 ft | 488 kts | 288° |